LIMC/MXP METAR and TAF weather

Enter ICAO airport designator
Station Type Date Time Source
LIMC METAR 2021/07/27 21:20 UTC NOAA

LIMC 272120Z 04007KT 8000 -TSRA SCT015CB BKN040 21/20 Q1015 RERA NOSIG


Station Type Date Time Source
LIMC Decoded METAR 2021/07/27 21:20 UTC NOAA

Milano / Malpensa, Italy (LIMC) 45-37N 008-44E 211M
Jul 27, 2021 - 05:20 PM EDT / 2021.07.27 2120 UTC
Wind: from the NE (040 degrees) at 8 MPH (7 KT):0
Visibility: 4 mile(s):0
Sky conditions: mostly cloudy
Weather: light rain with thunder; Cumulonimbus clouds observed
Temperature: 69 F (21 C)
Dew Point: 68 F (20 C)
Relative Humidity: 94%
Pressure (altimeter): 29.97 in. Hg (1015 hPa)
ob: LIMC 272120Z 04007KT 8000 -TSRA SCT015CB BKN040 21/20 Q1015 RERA NOSIG
cycle: 21

Station Type Date Time Source
LIMC TAF 2021/07/27 18:21 UTC NOAA

TAF LIMC 271700Z 2718/2824 VRB05KT 9999 BKN030
TEMPO 2718/2724 4000 TSRA
TEMPO 2800/2812 SHRA
BECMG 2811/2813 02010KT

Example: see airport list